Time;durP1;ratioP1;P1;durP2;ratioP2;P2;SDS_P1;SDS_P2;PMS_P1;PMS_P2;Temp;Humidity;BMP_temperature;BMP_pressure;BME280_temperature;BME280_humidity;BME280_pressure;Samples;Min_cycle;Max_cycle;Signal;HPM_P1;HPM_P2
2022/09/04 00:00:13;;;;;;;7.13;3.80;;;;;;;9.50;65.30;100407.00;5021832;28;20034;-59
2022/09/04 00:03:16;;;;;;;5.05;3.55;;;;;;;9.45;66.16;100399.31;5030008;28;20043;-51
2022/09/04 00:05:54;;;;;;;5.88;3.63;;;;;;;9.38;66.33;100400.66;5018193;28;20061;-55
2022/09/04 00:08:48;;;;;;;7.00;3.58;;;;;;;9.29;66.92;100404.81;5011155;28;20038;-51
2022/09/04 00:11:45;;;;;;;10.50;4.70;;;;;;;9.32;67.41;100417.97;5012520;28;20026;-48
2022/09/04 00:14:22;;;;;;;9.07;5.05;;;;;;;9.30;67.45;100420.72;5012962;28;20571;-48
2022/09/04 00:17:01;;;;;;;8.93;5.28;;;;;;;9.25;67.56;100412.16;5011001;28;20054;-52
2022/09/04 00:19:29;;;;;;;8.13;5.28;;;;;;;9.20;67.71;100419.63;5028781;28;20039;-55
2022/09/04 00:22:00;;;;;;;10.98;5.50;;;;;;;9.17;67.67;100418.00;5029417;28;20049;-55
2022/09/04 00:24:36;;;;;;;8.07;5.78;;;;;;;9.18;68.28;100418.88;5020278;28;20533;-54
2022/09/04 00:27:19;;;;;;;10.13;5.25;;;;;;;9.19;67.92;100417.91;5011478;28;20037;-51
2022/09/04 00:30:03;;;;;;;7.43;4.63;;;;;;;9.18;68.12;100424.22;5011209;28;20052;-52
2022/09/04 00:33:10;;;;;;;8.27;4.30;;;;;;;9.21;67.92;100420.47;5029482;28;20038;-51
2022/09/04 00:35:43;;;;;;;6.60;4.47;;;;;;;9.09;68.01;100422.13;5029101;28;20041;-60
2022/09/04 00:38:31;;;;;;;7.20;4.40;;;;;;;9.06;68.64;100420.53;5022529;28;20030;-51
2022/09/04 00:41:22;;;;;;;9.10;4.38;;;;;;;9.09;68.42;100416.78;5010985;28;20219;-50
2022/09/04 00:43:55;;;;;;;5.85;3.80;;;;;;;8.97;68.60;100413.97;5010567;28;20077;-49
2022/09/04 00:46:46;;;;;;;9.02;4.10;;;;;;;8.98;69.06;100415.69;5027746;28;20045;-52
2022/09/04 00:49:35;;;;;;;7.88;4.40;;;;;;;9.01;68.82;100412.81;5030947;28;20041;-50
2022/09/04 00:52:16;;;;;;;7.85;4.30;;;;;;;8.88;69.08;100411.88;5015416;28;20083;-49
2022/09/04 00:54:56;;;;;;;9.27;3.85;;;;;;;8.91;69.22;100411.66;5010195;28;20061;-48
2022/09/04 00:57:59;;;;;;;11.07;4.93;;;;;;;8.90;69.71;100412.63;5019729;28;20026;-49
2022/09/04 01:00:26;;;;;;;7.53;4.22;;;;;;;8.74;69.59;100408.28;5031225;28;20041;-52
2022/09/04 01:03:00;;;;;;;11.32;4.10;;;;;;;8.70;69.93;100411.25;5023163;28;20084;-49
2022/09/04 01:05:44;;;;;;;7.63;4.63;;;;;;;8.72;70.24;100418.22;5010548;28;20056;-51
2022/09/04 01:08:31;;;;;;;8.52;4.22;;;;;;;8.73;70.21;100413.72;5018186;28;20053;-50
2022/09/04 01:11:15;;;;;;;12.73;4.35;;;;;;;8.62;70.72;100414.41;5030825;28;20040;-47
2022/09/04 01:14:09;;;;;;;9.75;4.40;;;;;;;8.65;70.74;100419.53;5019608;28;20063;-49
2022/09/04 01:16:40;;;;;;;8.43;4.47;;;;;;;8.54;70.58;100411.34;5030216;28;20025;-50
2022/09/04 01:19:42;;;;;;;8.75;4.22;;;;;;;8.59;70.80;100422.59;5030199;28;20078;-50
2022/09/04 01:22:29;;;;;;;8.13;3.90;;;;;;;8.57;70.81;100419.16;5015982;28;20116;-49
2022/09/04 01:25:14;;;;;;;7.97;4.05;;;;;;;8.44;70.89;100417.25;5013805;28;20042;-49
2022/09/04 01:27:53;;;;;;;6.82;3.58;;;;;;;8.48;71.17;100417.91;5014516;28;20084;-49
2022/09/04 01:30:20;;;;;;;6.78;3.78;;;;;;;8.38;71.20;100422.09;5013767;28;20112;-47
2022/09/04 01:33:06;;;;;;;8.05;3.55;;;;;;;8.41;71.75;100420.09;5019036;28;20509;-48
2022/09/04 01:35:51;;;;;;;7.53;3.88;;;;;;;8.47;71.50;100422.41;5033833;28;20685;-48
2022/09/04 01:38:29;;;;;;;7.18;3.75;;;;;;;8.26;71.80;100389.03;5033306;28;20063;-47
2022/09/04 01:41:34;;;;;;;5.97;3.30;;;;;;;8.42;71.78;100413.78;5019290;28;20427;-48
2022/09/04 01:44:03;;;;;;;7.57;3.60;;;;;;;8.31;71.49;100416.28;5013892;28;20153;-49
2022/09/04 01:46:48;;;;;;;7.90;3.38;;;;;;;8.35;71.91;100422.31;5022552;28;20072;-51
2022/09/04 01:49:38;;;;;;;6.87;3.90;;;;;;;8.33;72.25;100425.91;5033950;28;20040;-49
2022/09/04 01:52:07;;;;;;;13.77;3.88;;;;;;;8.27;72.28;100418.28;5025989;28;20363;-51
2022/09/04 01:54:49;;;;;;;8.20;3.80;;;;;;;8.30;72.71;100419.91;5013663;28;20061;-53
2022/09/04 01:57:58;;;;;;;7.55;3.67;;;;;;;8.31;72.54;100416.28;5015560;28;20064;-51
2022/09/04 02:00:31;;;;;;;12.35;3.92;;;;;;;8.25;72.42;100411.34;5015405;28;20132;-52
2022/09/04 02:03:21;;;;;;;10.70;3.92;;;;;;;8.26;72.46;100408.56;5013349;28;20087;-52
2022/09/04 02:06:09;;;;;;;9.02;3.88;;;;;;;8.22;72.59;100408.84;5013751;28;20093;-53
2022/09/04 02:09:14;;;;;;;9.75;4.32;;;;;;;8.24;72.69;100404.28;5013462;28;20034;-49
2022/09/04 02:11:47;;;;;;;9.30;4.55;;;;;;;8.15;72.56;100403.88;5008963;28;20038;-51
2022/09/04 02:14:39;;;;;;;5.57;4.22;;;;;;;8.16;72.97;100397.59;5013524;28;20356;-55
2022/09/04 02:17:17;;;;;;;7.57;4.38;;;;;;;8.09;73.21;100406.94;5020254;28;20113;-55
2022/09/04 02:19:54;;;;;;;10.07;4.38;;;;;;;8.07;73.26;100400.84;5033012;28;20033;-56
2022/09/04 02:22:31;;;;;;;8.77;4.57;;;;;;;8.00;73.48;100403.00;5032532;28;20439;-55
2022/09/04 02:25:19;;;;;;;8.70;4.35;;;;;;;7.98;73.77;100393.41;5018474;28;20026;-55
2022/09/04 02:28:03;;;;;;;7.72;4.75;;;;;;;7.98;73.76;100402.25;5013439;28;20042;-55
2022/09/04 02:30:42;;;;;;;8.27;4.43;;;;;;;7.97;73.62;100399.69;5022386;28;20434;-49
2022/09/04 02:33:15;;;;;;;11.80;4.38;;;;;;;7.93;73.93;100395.47;5031764;28;20086;-50
2022/09/04 02:35:48;;;;;;;6.57;3.95;;;;;;;7.89;74.11;100401.00;5033408;28;20034;-49
2022/09/04 02:38:27;;;;;;;8.68;4.00;;;;;;;7.93;73.92;100417.66;5015890;28;20041;-52
2022/09/04 02:41:07;;;;;;;9.10;4.43;;;;;;;7.92;73.95;100417.75;5031013;28;20041;-48
2022/09/04 02:44:01;;;;;;;6.55;4.18;;;;;;;7.94;73.91;100415.84;5029510;28;20087;-49
2022/09/04 02:46:43;;;;;;;6.88;4.22;;;;;;;7.94;73.84;100429.19;5013115;28;20120;-53
2022/09/04 02:49:35;;;;;;;7.95;4.28;;;;;;;7.98;73.87;100428.06;5012463;28;20450;-51
2022/09/04 02:52:26;;;;;;;10.65;4.13;;;;;;;7.94;73.72;100423.84;5012150;28;20041;-49
2022/09/04 02:55:01;;;;;;;8.65;4.05;;;;;;;7.90;73.69;100420.53;5012943;28;20049;-50
2022/09/04 02:57:42;;;;;;;10.70;4.50;;;;;;;7.97;73.96;100429.88;5030497;28;20034;-52
2022/09/04 03:00:16;;;;;;;6.65;4.28;;;;;;;7.98;73.59;100433.41;5032019;28;20049;-53
2022/09/04 03:03:03;;;;;;;5.43;3.83;;;;;;;7.97;73.66;100429.88;5025814;28;20048;-49
2022/09/04 03:05:40;;;;;;;8.60;4.40;;;;;;;8.02;73.35;100425.09;5012623;28;20137;-52
2022/09/04 03:08:29;;;;;;;9.93;4.57;;;;;;;7.99;73.36;100427.13;5012190;28;20078;-49
2022/09/04 03:11:15;;;;;;;10.40;4.18;;;;;;;8.11;73.41;100431.69;5012150;28;20124;-51
2022/09/04 03:14:01;;;;;;;6.97;4.65;;;;;;;8.12;73.23;100422.75;5012367;28;20040;-50
2022/09/04 03:16:56;;;;;;;7.97;4.47;;;;;;;8.22;73.21;100423.03;5029675;28;20036;-52
2022/09/04 03:19:35;;;;;;;11.35;4.75;;;;;;;8.25;73.34;100419.34;5031803;28;20049;-51
2022/09/04 03:22:11;;;;;;;8.07;4.75;;;;;;;8.33;73.41;100419.72;5016814;28;20478;-51
2022/09/04 03:25:02;;;;;;;9.02;4.50;;;;;;;8.73;73.68;100419.06;5011239;28;20490;-50
2022/09/04 03:27:31;;;;;;;8.38;4.57;;;;;;;9.78;70.41;100416.69;5021467;28;20025;-47
2022/09/04 03:29:56;;;;;;;11.90;4.18;;;;;;;11.09;65.20;100415.63;5032064;28;20043;-51
2022/09/04 03:33:03;;;;;;;7.82;4.50;;;;;;;12.66;60.76;100409.13;5014171;28;20040;-51
2022/09/04 03:35:47;;;;;;;;;;;;;;;14.17;57.71;100417.31;5017725;28;20042;-48
2022/09/04 03:38:24;;;;;;;8.85;4.35;;;;;;;15.20;52.31;100417.31;5012218;28;20004;-53
2022/09/04 03:41:10;;;;;;;9.68;4.13;;;;;;;16.28;48.96;100411.03;5011683;28;20041;-49
2022/09/04 03:43:36;;;;;;;;;;;;;;;17.54;48.08;100406.91;5011961;28;20030;-48
2022/09/04 03:46:28;;;;;;;6.73;5.00;;;;;;;18.30;44.11;100411.91;5026401;28;20029;-51
2022/09/04 03:49:00;;;;;;;10.25;5.47;;;;;;;18.91;42.20;100415.41;5031155;28;20113;-51
2022/09/04 03:51:28;;;;;;;11.13;5.00;;;;;;;19.45;40.04;100416.09;5021155;28;20470;-51
2022/09/04 03:54:11;;;;;;;10.40;5.38;;;;;;;20.03;38.42;100413.44;5011672;28;20064;-51
2022/09/04 03:56:51;;;;;;;10.07;4.72;;;;;;;20.77;38.11;100410.53;5014453;28;20083;-52
2022/09/04 03:59:50;;;;;;;8.98;4.70;;;;;;;21.80;35.52;100417.75;5031843;28;20108;-49
2022/09/04 04:02:35;;;;;;;6.55;4.50;;;;;;;22.36;34.47;100411.09;5028747;28;20400;-48
2022/09/04 04:05:39;;;;;;;6.47;4.63;;;;;;;23.27;32.20;100409.13;5011058;28;20045;-55
2022/09/04 04:08:14;;;;;;;5.97;4.45;;;;;;;23.83;30.49;100408.41;5017848;28;20112;-52
2022/09/04 04:11:29;;;;;;;7.95;4.45;;;;;;;24.41;32.10;100409.28;5031538;28;20095;-49
2022/09/04 04:14:16;;;;;;;7.85;4.85;;;;;;;24.94;28.53;100409.59;5031045;28;20037;-52
2022/09/04 04:17:03;;;;;;;7.18;4.13;;;;;;;25.75;27.54;100403.47;5011137;28;20048;-52
2022/09/04 04:20:01;;;;;;;10.15;5.10;;;;;;;26.39;27.13;100403.88;5011445;28;20033;-53
2022/09/04 04:22:49;;;;;;;6.72;3.90;;;;;;;27.04;24.93;100396.69;5029194;28;20038;-51
2022/09/04 04:25:15;;;;;;;;;;;;;;;28.49;22.72;100405.09;5031155;28;20037;-53
2022/09/04 04:28:06;;;;;;;;;;;;;;;29.04;23.39;100397.88;5027145;28;20385;-54
2022/09/04 04:30:47;;;;;;;6.15;3.30;;;;;;;28.30;23.08;100384.13;5011521;28;20025;-52
2022/09/04 04:33:42;;;;;;;5.68;3.17;;;;;;;28.64;23.15;100406.63;5010973;28;20434;-56
2022/09/04 04:36:48;;;;;;;7.85;3.35;;;;;;;29.13;22.71;100394.78;5029440;28;20110;-52
2022/09/04 04:39:24;;;;;;;4.07;2.75;;;;;;;29.40;21.29;100398.03;5029835;28;20419;-51
2022/09/04 04:42:05;;;;;;;;;;;;;;;30.86;20.85;100394.84;5029576;28;20462;-60
2022/09/04 04:47:53;;;;;;;2.58;2.28;;;;;;;30.44;19.29;100378.44;5020346;28;20437;-53
2022/09/04 04:50:46;;;;;;;2.65;2.30;;;;;;;31.26;18.60;100395.91;5011496;28;20092;-54
2022/09/04 04:53:34;;;;;;;2.30;2.00;;;;;;;31.45;18.72;100402.03;5018204;28;20076;-59
2022/09/04 04:56:18;;;;;;;3.03;1.98;;;;;;;31.84;17.02;100404.13;5031548;28;20608;-56
2022/09/04 04:59:07;;;;;;;2.20;2.00;;;;;;;32.48;17.09;100407.59;5030510;28;20030;-56
2022/09/04 05:02:06;;;;;;;2.53;2.33;;;;;;;33.33;15.86;100401.66;5015345;28;20030;-57
2022/09/04 05:05:02;;;;;;;2.42;2.10;;;;;;;33.90;15.99;100402.16;5015347;28;20597;-55
2022/09/04 05:07:59;;;;;;;2.13;1.92;;;;;;;34.55;15.76;100401.22;5015132;28;20502;-53
2022/09/04 05:10:40;;;;;;;2.28;2.00;;;;;;;35.14;14.20;100396.44;5030356;28;20048;-53
2022/09/04 05:13:31;;;;;;;2.88;2.10;;;;;;;35.85;13.33;100394.00;5034386;28;20082;-53
2022/09/04 05:16:18;;;;;;;2.22;2.03;;;;;;;36.47;13.50;100396.69;5033000;28;20327;-54
2022/09/04 05:19:00;;;;;;;8.80;2.05;;;;;;;36.50;13.14;100398.03;5035195;28;20394;-53
2022/09/04 05:22:02;;;;;;;2.35;1.67;;;;;;;37.52;11.99;100397.00;5032476;28;20442;-53
2022/09/04 05:24:39;;;;;;;4.75;1.67;;;;;;;37.72;11.32;100395.97;5014542;28;20032;-57
2022/09/04 05:27:42;;;;;;;4.85;1.90;;;;;;;38.53;10.71;100397.41;5031592;28;20494;-62
2022/09/04 05:30:19;;;;;;;2.20;1.23;;;;;;;38.80;11.06;100395.94;5014122;28;20045;-51
2022/09/04 05:32:55;;;;;;;3.13;1.40;;;;;;;38.86;10.81;100397.56;5015016;28;20042;-59
2022/09/04 05:35:52;;;;;;;1.63;1.30;;;;;;;38.97;10.37;100399.09;5015204;28;20025;-59
2022/09/04 05:38:42;;;;;;;3.03;1.65;;;;;;;40.37;10.29;100402.41;5024003;28;20062;-51
2022/09/04 05:41:14;;;;;;;1.65;1.15;;;;;;;40.36;9.35;100400.72;5029303;28;20339;-59
2022/09/04 05:44:07;;;;;;;1.45;1.35;;;;;;;40.70;9.00;100410.66;5033903;28;20030;-53
2022/09/04 05:46:50;;;;;;;1.40;1.30;;;;;;;41.28;8.96;100411.13;5033940;28;20038;-55
2022/09/04 05:49:30;;;;;;;5.40;1.50;;;;;;;41.49;8.26;100410.63;5034245;28;20030;-55
2022/09/04 05:52:16;;;;;;;2.85;1.27;;;;;;;41.71;8.82;100406.13;5027177;28;20073;-58
2022/09/04 05:55:10;;;;;;;1.92;1.38;;;;;;;42.43;8.43;100401.38;5013828;28;20038;-57
2022/09/04 05:57:51;;;;;;;1.30;1.20;;;;;;;42.23;7.95;100411.25;5016858;28;20026;-52
2022/09/04 06:00:18;;;;;;;1.20;1.10;;;;;;;41.65;7.82;100405.47;5033404;28;20465;-55
2022/09/04 06:03:02;;;;;;;1.30;1.20;;;;;;;41.67;7.88;100382.63;5033396;28;20104;-56
2022/09/04 06:05:55;;;;;;;2.03;1.10;;;;;;;42.68;7.17;100410.22;5030721;28;20446;-55
2022/09/04 06:08:34;;;;;;;1.05;1.00;;;;;;;43.51;7.36;100413.31;5033538;28;20292;-51
2022/09/04 06:11:18;;;;;;;1.55;0.98;;;;;;;44.13;6.90;100411.22;5031398;28;20046;-54
2022/09/04 06:13:52;;;;;;;1.20;1.10;;;;;;;43.57;6.72;100403.50;5033849;28;20033;-52
2022/09/04 06:16:52;;;;;;;1.50;1.20;;;;;;;43.69;7.54;100399.19;5033835;28;20025;-55
2022/09/04 06:19:39;;;;;;;0.75;0.75;;;;;;;43.63;6.93;100418.28;5031669;28;20076;-53
2022/09/04 06:22:07;;;;;;;0.80;0.80;;;;;;;44.02;6.20;100418.34;5033409;28;20044;-56
2022/09/04 06:24:47;;;;;;;0.90;0.90;;;;;;;44.81;6.68;100412.34;5031832;28;20037;-53
2022/09/04 06:27:25;;;;;;;0.90;0.90;;;;;;;44.47;5.71;100410.56;5033621;28;20116;-54
2022/09/04 06:30:14;;;;;;;2.33;1.00;;;;;;;45.20;5.53;100422.69;5032994;28;20037;-54
2022/09/04 06:33:04;;;;;;;1.20;0.90;;;;;;;45.49;5.96;100418.16;5012907;28;20497;-53
2022/09/04 06:35:40;;;;;;;0.93;0.80;;;;;;;45.64;6.16;100409.00;5013857;28;20129;-54
2022/09/04 06:38:18;;;;;;;1.02;0.95;;;;;;;45.20;5.49;100403.75;5014052;28;20044;-55
2022/09/04 06:41:23;;;;;;;1.33;1.10;;;;;;;46.67;5.04;100409.28;5011311;28;20037;-55
2022/09/04 06:44:01;;;;;;;1.13;1.05;;;;;;;47.01;4.53;100412.75;5013903;28;20034;-54
2022/09/04 06:46:38;;;;;;;2.15;0.90;;;;;;;46.98;5.12;100407.81;5013333;28;20343;-62
2022/09/04 06:49:12;;;;;;;1.90;0.65;;;;;;;45.13;5.46;100407.13;5012673;28;20489;-54
2022/09/04 06:51:51;;;;;;;1.58;0.90;;;;;;;44.86;5.44;100402.84;5013735;28;20037;-53
2022/09/04 06:54:38;;;;;;;0.75;0.75;;;;;;;45.29;6.13;100415.81;5012859;28;20483;-56
2022/09/04 06:57:24;;;;;;;0.98;0.98;;;;;;;45.47;5.52;100409.22;5012815;28;20171;-54
2022/09/04 07:00:10;;;;;;;2.47;1.27;;;;;;;45.26;5.86;100410.03;5012503;28;20272;-60
2022/09/04 07:02:55;;;;;;;3.50;1.20;;;;;;;46.00;5.66;100404.63;5012333;28;20168;-50
2022/09/04 07:05:42;;;;;;;3.15;1.15;;;;;;;44.31;5.97;100397.00;5012818;28;20066;-52
2022/09/04 07:08:24;;;;;;;1.70;1.52;;;;;;;42.65;6.97;100394.00;5011771;28;20069;-55
2022/09/04 07:11:09;;;;;;;5.28;2.10;;;;;;;43.28;6.55;100399.38;5012319;28;20036;-53
2022/09/04 07:13:56;;;;;;;1.75;1.00;;;;;;;43.26;6.82;100396.06;5013290;28;20540;-49
2022/09/04 07:16:39;;;;;;;2.10;0.98;;;;;;;42.77;7.19;100401.00;5011842;28;20033;-51
2022/09/04 07:19:33;;;;;;;1.70;0.90;;;;;;;44.17;6.36;100400.06;5029735;28;20045;-53
2022/09/04 07:22:25;;;;;;;3.13;1.50;;;;;;;45.80;5.75;100397.88;5032225;28;20156;-62
2022/09/04 07:24:55;;;;;;;0.98;0.60;;;;;;;45.76;4.96;100393.28;5031157;28;20041;-54
2022/09/04 07:27:42;;;;;;;1.63;0.88;;;;;;;46.71;4.35;100396.03;5031824;28;20040;-52
2022/09/04 07:30:14;;;;;;;3.63;1.00;;;;;;;45.41;5.29;100369.03;5029737;28;20038;-55
2022/09/04 07:32:46;;;;;;;1.38;1.00;;;;;;;43.53;6.20;100371.53;5031528;28;20048;-53
2022/09/04 07:35:40;;;;;;;2.30;0.90;;;;;;;42.39;6.79;100366.59;5031612;28;20036;-56
2022/09/04 07:38:20;;;;;;;1.60;0.95;;;;;;;43.02;6.32;100372.06;5011548;28;20114;-55
2022/09/04 07:41:03;;;;;;;2.28;0.98;;;;;;;44.01;6.41;100380.03;5011512;28;20041;-51
2022/09/04 07:43:44;;;;;;;1.13;0.85;;;;;;;44.02;5.53;100376.03;5012875;28;20117;-54
2022/09/04 07:46:21;;;;;;;2.53;0.70;;;;;;;43.87;5.82;100375.44;5012061;28;20061;-54
2022/09/04 07:48:55;;;;;;;1.13;0.80;;;;;;;43.32;6.18;100377.03;5012606;28;20034;-53
2022/09/04 07:51:26;;;;;;;1.05;0.80;;;;;;;40.69;7.17;100372.53;5011775;28;20038;-51
2022/09/04 07:53:57;;;;;;;2.08;0.90;;;;;;;40.17;7.66;100367.16;5011825;28;20033;-55
2022/09/04 07:56:39;;;;;;;0.70;0.70;;;;;;;40.81;7.35;100368.41;5010954;28;20454;-51
2022/09/04 07:59:48;;;;;;;3.33;0.80;;;;;;;40.89;7.40;100365.66;5011424;28;20144;-52
2022/09/04 08:02:55;;;;;;;1.77;0.60;;;;;;;39.16;7.53;100361.88;5012053;28;20036;-57
2022/09/04 08:05:22;;;;;;;2.15;0.40;;;;;;;35.61;9.77;100368.69;5014449;28;20124;-51
2022/09/04 08:08:28;;;;;;;0.55;0.55;;;;;;;33.17;11.62;100361.00;5009886;28;20042;-54
2022/09/04 08:11:26;;;;;;;1.20;0.50;;;;;;;30.59;13.39;100370.50;5020799;28;20338;-55
2022/09/04 08:14:30;;;;;;;1.17;0.60;;;;;;;28.10;15.46;100379.63;5031142;28;20104;-51
2022/09/04 08:17:02;;;;;;;1.17;0.80;;;;;;;26.03;17.41;100359.34;5028095;28;20021;-54
2022/09/04 08:19:46;;;;;;;0.60;0.40;;;;;;;24.94;18.26;100354.81;5030001;28;20029;-50
2022/09/04 08:22:26;;;;;;;2.47;0.60;;;;;;;24.04;19.71;100357.50;5030537;28;20037;-55
2022/09/04 08:25:19;;;;;;;0.98;0.57;;;;;;;23.67;19.57;100359.50;5010554;28;20034;-53
2022/09/04 08:28:23;;;;;;;1.50;0.50;;;;;;;23.08;20.52;100341.25;5011013;28;20060;-53
2022/09/04 08:31:14;;;;;;;1.38;0.55;;;;;;;22.61;20.75;100340.75;5011225;28;20030;-56
2022/09/04 08:33:58;;;;;;;1.33;0.70;;;;;;;22.20;22.32;100333.88;5011163;28;20034;-53
2022/09/04 08:36:41;;;;;;;1.17;0.60;;;;;;;22.03;22.20;100335.09;5011377;28;20406;-56
2022/09/04 08:39:10;;;;;;;2.00;0.70;;;;;;;21.56;22.98;100331.56;5010579;28;20033;-52
2022/09/04 08:42:30;;;;;;;1.80;0.70;;;;;;;21.33;22.58;100340.63;5010778;28;20084;-51
2022/09/04 08:45:37;;;;;;;1.33;0.70;;;;;;;20.77;24.03;100341.63;5027756;28;20046;-49
2022/09/04 08:48:20;;;;;;;0.73;0.63;;;;;;;20.41;24.20;100342.16;5030017;28;20048;-49
2022/09/04 08:50:50;;;;;;;1.02;0.77;;;;;;;20.11;25.29;100328.28;5028921;28;20037;-53
2022/09/04 08:53:18;;;;;;;0.57;0.52;;;;;;;20.24;25.31;100325.88;5030195;28;20112;-54
2022/09/04 08:56:04;;;;;;;1.02;0.73;;;;;;;20.52;24.65;100336.31;5027838;28;20474;-56
2022/09/04 08:59:00;;;;;;;4.03;0.70;;;;;;;20.76;24.23;100327.19;5030664;28;20049;-55
2022/09/04 09:01:50;;;;;;;204.70;21.25;;;;;;;20.75;24.23;100330.09;5030218;28;20613;-53
2022/09/04 09:04:24;;;;;;;22.98;3.13;;;;;;;20.73;25.22;100326.69;5028309;28;20049;-56
2022/09/04 09:07:21;;;;;;;2.70;0.98;;;;;;;21.01;23.90;100324.34;5029773;28;20490;-50
2022/09/04 09:10:05;;;;;;;3.15;0.90;;;;;;;20.90;24.27;100311.16;5028044;28;20100;-54
2022/09/04 09:12:36;;;;;;;1.92;0.70;;;;;;;20.87;24.21;100312.38;5029606;28;20492;-51
2022/09/04 09:15:46;;;;;;;0.70;0.60;;;;;;;20.91;24.25;100318.28;5029853;28;20405;-51
2022/09/04 09:18:23;;;;;;;0.60;0.50;;;;;;;20.77;24.87;100307.13;5009901;28;20041;-53
2022/09/04 09:21:00;;;;;;;0.60;0.60;;;;;;;20.85;23.90;100317.13;5010534;28;20112;-51
2022/09/04 09:24:13;;;;;;;1.05;0.60;;;;;;;20.98;23.71;100322.00;5011648;28;20998;-51
2022/09/04 09:27:20;;;;;;;1.73;0.50;;;;;;;20.90;24.02;100316.59;5009455;28;20070;-53
2022/09/04 09:30:04;;;;;;;5.07;0.95;;;;;;;20.62;24.14;100322.50;5013231;28;20366;-55
2022/09/04 09:32:59;;;;;;;3.05;0.65;;;;;;;20.33;24.33;100321.28;5029701;28;20072;-54
2022/09/04 09:36:03;;;;;;;0.50;0.40;;;;;;;20.18;23.71;100321.16;5029357;28;20168;-56
2022/09/04 09:39:03;;;;;;;1.00;0.57;;;;;;;19.95;24.39;100316.47;5027714;28;20250;-50
2022/09/04 09:41:52;;;;;;;1.77;0.63;;;;;;;19.62;24.69;100311.03;5029119;28;20049;-52
2022/09/04 09:44:42;;;;;;;5.78;0.80;;;;;;;19.35;25.47;100315.81;5031433;28;20036;-50
2022/09/04 09:47:21;;;;;;;0.63;0.63;;;;;;;19.29;25.63;100309.22;5033609;28;20045;-58
2022/09/04 09:50:05;;;;;;;0.75;0.75;;;;;;;19.55;25.38;100305.47;5031983;28;20040;-53
2022/09/04 09:52:49;;;;;;;2.45;0.68;;;;;;;19.86;25.37;100299.28;5013114;28;20034;-54
2022/09/04 09:55:53;;;;;;;2.05;0.80;;;;;;;20.34;24.14;100303.94;5013223;28;20044;-53
2022/09/04 09:59:00;;;;;;;5.07;0.88;;;;;;;20.26;24.08;100299.38;5020266;28;20052;-54
2022/09/04 10:01:47;;;;;;;0.80;0.73;;;;;;;19.79;23.99;100303.72;5013205;28;20037;-53
2022/09/04 10:04:59;;;;;;;2.13;0.73;;;;;;;19.65;24.32;100300.69;5013325;28;20033;-53
2022/09/04 10:07:48;;;;;;;2.00;0.63;;;;;;;19.64;24.49;100300.84;5023659;28;20041;-57
2022/09/04 10:10:47;;;;;;;1.48;0.70;;;;;;;20.05;24.03;100298.06;5032220;28;20065;-54
2022/09/04 10:13:47;;;;;;;2.75;1.00;;;;;;;20.06;23.51;100298.94;5011733;28;20038;-52
2022/09/04 10:16:26;;;;;;;1.60;0.70;;;;;;;19.69;23.96;100297.63;5013589;28;20149;-53
2022/09/04 10:18:58;;;;;;;0.60;0.50;;;;;;;19.27;24.01;100311.22;5032386;28;20037;-53
2022/09/04 10:21:48;;;;;;;1.65;0.50;;;;;;;19.08;23.62;100313.25;5032491;28;20120;-54
2022/09/04 10:24:42;;;;;;;0.88;0.60;;;;;;;19.03;23.57;100303.91;5018768;28;20056;-55
2022/09/04 10:27:30;;;;;;;0.73;0.55;;;;;;;19.26;23.34;100303.25;5013249;28;20435;-51
2022/09/04 10:29:58;;;;;;;2.05;0.60;;;;;;;19.26;22.60;100298.66;5013394;28;20041;-56
2022/09/04 10:32:33;;;;;;;1.20;0.50;;;;;;;19.23;22.86;100304.44;5012492;28;20099;-52
2022/09/04 10:35:17;;;;;;;1.27;0.50;;;;;;;19.04;22.98;100300.19;5012926;28;20113;-52
2022/09/04 10:38:10;;;;;;;0.77;0.43;;;;;;;18.74;23.75;100302.47;5032225;28;20033;-56
2022/09/04 10:40:47;;;;;;;2.72;1.00;;;;;;;18.40;24.98;100300.66;5032992;28;20044;-53
2022/09/04 10:43:31;;;;;;;0.70;0.63;;;;;;;18.22;25.17;100301.63;5030585;28;20040;-52
2022/09/04 10:46:10;;;;;;;1.35;0.93;;;;;;;17.90;26.27;100298.53;5033372;28;20068;-53
2022/09/04 10:49:00;;;;;;;0.90;0.60;;;;;;;17.96;26.21;100293.47;5032730;28;20061;-57
2022/09/04 10:51:48;;;;;;;0.70;0.52;;;;;;;18.06;26.41;100292.38;5030978;28;20083;-55
2022/09/04 10:54:44;;;;;;;1.80;0.88;;;;;;;18.40;25.54;100292.53;5031415;28;20041;-55
2022/09/04 10:57:36;;;;;;;1.58;0.60;;;;;;;18.75;25.24;100286.03;5021647;28;20062;-56
2022/09/04 11:00:21;;;;;;;4.50;1.30;;;;;;;19.18;24.67;100282.38;5012540;28;20034;-56
2022/09/04 11:03:10;;;;;;;1.15;0.70;;;;;;;19.45;24.67;100283.91;5015782;28;20389;-49
2022/09/04 11:06:12;;;;;;;0.63;0.63;;;;;;;19.84;24.13;100284.19;5031127;28;20138;-53
2022/09/04 11:09:13;;;;;;;1.08;0.75;;;;;;;19.86;24.26;100283.00;5030715;28;20045;-53
2022/09/04 11:11:51;;;;;;;2.40;0.63;;;;;;;19.73;23.80;100279.94;5030758;28;20111;-54
2022/09/04 11:14:20;;;;;;;0.60;0.60;;;;;;;19.10;24.27;100295.97;5027250;28;20038;-55
2022/09/04 11:16:57;;;;;;;0.90;0.77;;;;;;;18.71;25.31;100303.66;5027832;28;20447;-55
2022/09/04 11:19:42;;;;;;;0.80;0.70;;;;;;;18.44;25.92;100292.03;5032185;28;20034;-53
2022/09/04 11:22:33;;;;;;;1.38;0.80;;;;;;;18.43;26.14;100287.63;5029818;28;20037;-55
2022/09/04 11:25:17;;;;;;;0.68;0.68;;;;;;;18.57;26.16;100294.28;5030630;28;20036;-54
2022/09/04 11:28:22;;;;;;;1.75;0.63;;;;;;;18.43;25.75;100287.63;5026855;28;20057;-56
2022/09/04 11:30:54;;;;;;;1.27;0.70;;;;;;;18.26;25.65;100275.88;5017510;28;20104;-49
2022/09/04 11:33:57;;;;;;;0.55;0.55;;;;;;;18.26;25.51;100273.19;5012717;28;20500;-55
2022/09/04 11:36:42;;;;;;;2.83;0.70;;;;;;;17.83;26.42;100275.78;5016253;28;20038;-52
2022/09/04 11:39:36;;;;;;;1.50;0.90;;;;;;;17.64;26.57;100277.72;5013362;28;20544;-55
2022/09/04 11:42:31;;;;;;;3.33;0.75;;;;;;;17.43;27.01;100283.47;5031209;28;20034;-57
2022/09/04 11:45:06;;;;;;;4.03;0.67;;;;;;;17.26;26.91;100273.56;5029537;28;20034;-54
2022/09/04 11:47:51;;;;;;;1.80;0.75;;;;;;;17.27;27.12;100269.84;5031149;28;20033;-57
2022/09/04 11:50:31;;;;;;;1.38;0.70;;;;;;;17.64;26.90;100271.44;5030234;28;20033;-55
2022/09/04 11:53:24;;;;;;;1.52;0.90;;;;;;;17.92;26.40;100273.97;5012166;28;20395;-53
2022/09/04 11:56:18;;;;;;;2.20;0.60;;;;;;;18.35;26.07;100271.34;5009977;28;20033;-53
2022/09/04 11:58:43;;;;;;;2.72;0.85;;;;;;;18.71;25.78;100262.97;5012784;28;20058;-56
2022/09/04 12:01:37;;;;;;;0.70;0.70;;;;;;;18.99;25.66;100256.44;5011538;28;20206;-53
2022/09/04 12:04:27;;;;;;;2.97;0.88;;;;;;;19.55;25.12;100262.00;5011923;28;20077;-53
2022/09/04 12:07:13;;;;;;;1.30;0.93;;;;;;;19.63;25.13;100223.97;5010300;28;20459;-48
2022/09/04 12:09:38;;;;;;;3.40;1.60;;;;;;;20.01;25.07;100252.38;5011831;28;20038;-49
2022/09/04 12:12:13;;;;;;;1.60;1.20;;;;;;;20.30;24.39;100246.31;5009015;28;20029;-55
2022/09/04 12:15:05;;;;;;;2.42;0.90;;;;;;;20.43;23.75;100256.63;5010659;28;20390;-52
2022/09/04 12:18:01;;;;;;;2.45;1.20;;;;;;;20.40;23.77;100262.44;5028084;28;20308;-48
2022/09/04 12:20:34;;;;;;;;;;;;;;;20.57;23.46;100246.03;5030875;28;20049;-54
2022/09/04 12:23:27;;;;;;;2.65;0.80;;;;;;;20.02;24.48;100254.94;5022661;28;19913;-48
2022/09/04 12:26:07;;;;;;;3.75;0.85;;;;;;;19.51;25.70;100263.34;5010073;28;20116;-49
2022/09/04 12:28:51;;;;;;;2.03;1.20;;;;;;;19.22;26.19;100253.88;5010193;28;20056;-50
2022/09/04 12:31:41;;;;;;;1.38;0.80;;;;;;;19.20;26.20;100253.19;5011557;28;20501;-54
2022/09/04 12:34:28;;;;;;;2.00;0.80;;;;;;;19.24;26.14;100251.84;5017117;28;20041;-50
2022/09/04 12:37:31;;;;;;;2.40;0.95;;;;;;;19.13;26.03;100258.44;5018339;28;20516;-51
2022/09/04 12:40:16;;;;;;;1.05;0.70;;;;;;;18.76;25.95;100257.88;5020300;28;20061;-54
2022/09/04 12:43:03;;;;;;;1.80;0.63;;;;;;;18.61;25.84;100259.56;5020030;28;20059;-54
2022/09/04 12:45:57;;;;;;;0.95;0.85;;;;;;;18.61;26.17;100252.25;5017119;28;20022;-55
2022/09/04 12:48:51;;;;;;;1.83;1.00;;;;;;;18.61;26.14;100254.97;5019718;28;20080;-53
2022/09/04 12:51:22;;;;;;;1.58;1.10;;;;;;;18.58;26.79;100252.59;5019855;28;20561;-56
2022/09/04 12:54:13;;;;;;;2.20;1.40;;;;;;;18.36;27.21;100263.03;5017396;28;20117;-53
2022/09/04 12:57:06;;;;;;;1.95;1.17;;;;;;;18.27;27.24;100258.59;5018996;28;20029;-53